createdAt,value
2023-02-22T00:01:07.771Z,82.18
2023-02-22T00:03:36.786Z,87.35
2023-02-22T00:06:06.455Z,89.82
2023-02-22T00:08:37.051Z,90.82
2023-02-22T00:11:08.968Z,90.20
2023-02-22T00:13:38.678Z,90.95
2023-02-22T00:16:07.549Z,91.95
2023-02-22T00:18:36.324Z,86.78
2023-02-22T00:21:10.808Z,84.85
2023-02-22T00:23:46.683Z,91.55
2023-02-22T00:26:19.228Z,90.68
2023-02-22T00:28:51.854Z,88.95
2023-02-22T00:31:21.099Z,92.38
2023-02-22T00:33:51.719Z,86.60
2023-02-22T00:36:20.254Z,92.20
2023-02-22T00:38:49.056Z,92.40
2023-02-22T00:41:17.819Z,84.93
2023-02-22T00:43:49.347Z,85.20
2023-02-22T00:46:17.944Z,89.28
2023-02-22T00:48:47.951Z,84.93
2023-02-22T00:51:16.649Z,91.75
2023-02-22T00:53:45.636Z,91.45
2023-02-22T00:56:14.200Z,86.53
2023-02-22T00:58:42.991Z,87.85
2023-02-22T01:01:11.599Z,89.75
2023-02-22T01:03:41.468Z,93.07
2023-02-22T01:06:10.353Z,82.15
2023-02-22T01:08:39.229Z,84.57
2023-02-22T01:11:07.637Z,89.28
2023-02-22T01:13:36.641Z,91.32
2023-02-22T01:16:08.480Z,91.28
2023-02-22T01:18:37.587Z,90.80
2023-02-22T01:21:06.616Z,87.80
2023-02-22T01:23:37.927Z,88.88
2023-02-22T01:26:06.469Z,99.90
2023-02-22T01:28:35.421Z,86.82
2023-02-22T01:31:04.271Z,92.20
2023-02-22T01:33:34.279Z,94.10
2023-02-22T01:36:03.916Z,92.63
2023-02-22T01:38:32.814Z,90.78
2023-02-22T01:41:01.818Z,88.28
2023-02-22T01:43:32.581Z,90.03
2023-02-22T01:46:27.294Z,87.35
2023-02-22T01:49:02.458Z,91.40
2023-02-22T01:51:38.064Z,89.10
2023-02-22T01:54:26.577Z,92.72
2023-02-22T01:57:20.791Z,90.22
2023-02-22T01:59:54.319Z,85.28
2023-02-22T02:02:25.350Z,83.68
2023-02-22T02:04:56.760Z,88.97
2023-02-22T02:07:25.300Z,94.75
2023-02-22T02:10:00.290Z,93.53
2023-02-22T02:12:31.417Z,85.57
2023-02-22T02:15:25.455Z,86.32
2023-02-22T02:17:55.248Z,90.00
2023-02-22T02:20:52.177Z,87.75
2023-02-22T02:24:02.542Z,95.43
2023-02-22T02:26:59.028Z,92.18
2023-02-22T02:29:44.888Z,87.30
2023-02-22T02:32:41.433Z,94.45
2023-02-22T02:35:38.609Z,96.80
2023-02-22T02:38:20.843Z,87.38
2023-02-22T02:41:23.252Z,98.00
2023-02-22T02:44:16.208Z,95.18
2023-02-22T02:46:57.848Z,95.47
2023-02-22T02:49:46.935Z,94.85
2023-02-22T02:52:16.521Z,87.15
2023-02-22T02:54:46.383Z,92.15
2023-02-22T02:57:16.061Z,90.80
2023-02-22T02:59:44.902Z,95.50
2023-02-22T03:02:51.971Z,88.82
2023-02-22T03:05:50.170Z,89.03
2023-02-22T03:08:43.854Z,96.43
2023-02-22T03:11:31.650Z,95.85
2023-02-22T03:14:42.893Z,87.60
2023-02-22T03:17:30.754Z,94.18
2023-02-22T03:20:05.251Z,85.65
2023-02-22T03:22:44.251Z,89.70
2023-02-22T03:25:22.773Z,94.25
2023-02-22T03:28:02.572Z,93.05
2023-02-22T03:30:51.170Z,100.60
2023-02-22T03:34:01.683Z,92.68
2023-02-22T03:36:44.093Z,96.88
2023-02-22T03:39:17.893Z,83.68
2023-02-22T03:41:51.729Z,91.00
2023-02-22T03:44:26.163Z,89.43
2023-02-22T03:46:56.931Z,94.30
2023-02-22T03:49:51.815Z,92.65
2023-02-22T03:52:23.633Z,89.93
2023-02-22T03:54:54.091Z,93.80
2023-02-22T03:57:32.933Z,95.13
2023-02-22T04:00:10.970Z,94.00
2023-02-22T04:02:42.400Z,95.65
2023-02-22T04:05:15.997Z,92.82
2023-02-22T04:07:45.251Z,90.18
2023-02-22T04:10:16.292Z,101.70
2023-02-22T04:12:45.570Z,93.63
2023-02-22T04:15:20.292Z,90.68
2023-02-22T04:17:52.692Z,99.90
2023-02-22T04:20:25.755Z,89.10
2023-02-22T04:23:00.590Z,92.20
2023-02-22T04:25:30.538Z,94.20
2023-02-22T04:27:59.303Z,90.20
2023-02-22T04:30:39.910Z,96.63
2023-02-22T04:33:13.195Z,90.32
2023-02-22T04:35:42.654Z,95.03
2023-02-22T04:38:11.760Z,96.78
2023-02-22T04:40:42.432Z,101.20
2023-02-22T04:43:11.056Z,94.65
2023-02-22T04:45:39.942Z,92.35
2023-02-22T04:48:09.800Z,96.93
2023-02-22T04:50:39.472Z,98.22
2023-02-22T04:53:08.107Z,99.57
2023-02-22T04:55:39.508Z,94.75
2023-02-22T04:58:09.488Z,97.75
2023-02-22T05:00:39.576Z,91.95
2023-02-22T05:03:09.122Z,95.80
2023-02-22T05:05:37.984Z,98.57
2023-02-22T05:08:06.650Z,96.63
2023-02-22T05:10:35.691Z,98.40
2023-02-22T05:13:04.348Z,100.78
2023-02-22T05:15:33.203Z,100.22
2023-02-22T05:18:01.569Z,93.10
2023-02-22T05:20:34.101Z,94.80
2023-02-22T05:23:03.204Z,94.80
2023-02-22T05:25:32.239Z,96.38
2023-02-22T05:28:07.931Z,95.88
2023-02-22T05:30:39.945Z,96.60
2023-02-22T05:33:09.272Z,94.72
2023-02-22T05:35:38.132Z,96.38
2023-02-22T05:38:06.650Z,100.60
2023-02-22T05:40:35.445Z,95.57
2023-02-22T05:43:03.989Z,99.55
2023-02-22T05:45:32.847Z,101.13
2023-02-22T05:48:01.394Z,101.00
2023-02-22T05:50:30.269Z,97.40
2023-02-22T05:52:58.823Z,96.13
2023-02-22T05:55:27.684Z,99.95
2023-02-22T05:57:56.170Z,95.97
2023-02-22T06:00:30.415Z,95.75
2023-02-22T06:03:08.360Z,98.90
2023-02-22T06:05:37.743Z,91.93
2023-02-22T06:08:07.126Z,98.75
2023-02-22T06:10:36.006Z,101.38
2023-02-22T06:13:05.023Z,88.93
2023-02-22T06:15:33.989Z,106.88
2023-02-22T06:18:02.618Z,101.80
2023-02-22T06:20:31.586Z,97.28
2023-02-22T06:23:00.142Z,106.47
2023-02-22T06:25:33.602Z,101.93
2023-02-22T06:30:30.973Z,98.07
2023-02-22T06:32:59.433Z,98.63
2023-02-22T06:35:28.204Z,98.50
2023-02-22T06:37:56.797Z,97.63
2023-02-22T06:40:29.726Z,99.50
2023-02-22T06:42:58.791Z,104.63
2023-02-22T06:45:27.827Z,97.05
2023-02-22T06:47:56.295Z,94.55
2023-02-22T06:50:29.093Z,96.82
2023-02-22T06:52:58.103Z,97.50
2023-02-22T06:55:29.692Z,93.95
2023-02-22T06:57:58.288Z,98.38
2023-02-22T07:00:28.203Z,104.30
2023-02-22T07:02:57.205Z,103.95
2023-02-22T07:05:26.664Z,106.80
2023-02-22T07:07:56.372Z,98.63
2023-02-22T07:10:28.156Z,102.50
2023-02-22T07:12:56.832Z,100.57
2023-02-22T07:15:28.116Z,100.82
2023-02-22T07:17:56.789Z,100.32
2023-02-22T07:20:27.886Z,102.93
2023-02-22T07:22:56.461Z,103.25
2023-02-22T07:25:25.646Z,103.82
2023-02-22T07:27:54.072Z,96.78
2023-02-22T07:30:25.669Z,97.88
2023-02-22T07:32:55.155Z,98.80
2023-02-22T07:35:50.133Z,97.18
2023-02-22T07:38:19.608Z,98.40
2023-02-22T07:40:48.404Z,98.03
2023-02-22T07:43:25.021Z,109.40
2023-02-22T07:45:56.999Z,104.32
2023-02-22T07:48:27.772Z,99.32
2023-02-22T07:50:56.895Z,95.03
2023-02-22T07:53:31.018Z,102.60
2023-02-22T07:56:05.501Z,99.97
2023-02-22T07:58:34.138Z,103.43
2023-02-22T08:01:03.085Z,95.28
2023-02-22T08:03:36.948Z,102.13
2023-02-22T08:06:07.435Z,107.57
2023-02-22T08:08:35.841Z,103.32
2023-02-22T08:11:05.101Z,110.68
2023-02-22T08:13:33.578Z,110.55
2023-02-22T08:16:02.339Z,98.13
2023-02-22T08:18:30.867Z,113.07
2023-02-22T08:20:59.680Z,108.35
2023-02-22T08:23:28.248Z,102.47
2023-02-22T08:26:03.879Z,100.55
2023-02-22T08:28:32.444Z,108.82
2023-02-22T08:31:01.351Z,103.55
2023-02-22T08:33:29.885Z,103.45
2023-02-22T08:35:58.705Z,106.28
2023-02-22T08:38:30.406Z,115.47
2023-02-22T08:40:59.262Z,107.75
2023-02-22T08:43:29.090Z,116.78
2023-02-22T08:45:58.076Z,111.07
2023-02-22T08:48:26.818Z,109.25
2023-02-22T08:50:56.442Z,112.28
2023-02-22T08:53:24.885Z,111.45
2023-02-22T08:55:53.812Z,110.60
2023-02-22T08:58:22.545Z,102.82
2023-02-22T09:00:51.387Z,101.07
2023-02-22T09:03:19.816Z,102.90
2023-02-22T09:05:48.916Z,106.75
2023-02-22T09:08:17.720Z,112.57
2023-02-22T09:10:46.691Z,109.22
2023-02-22T09:13:15.305Z,111.65
2023-02-22T09:15:44.133Z,107.90
2023-02-22T09:18:14.794Z,113.13
2023-02-22T09:20:43.835Z,111.20
2023-02-22T09:23:12.534Z,112.78
2023-02-22T09:25:41.632Z,109.75
2023-02-22T09:28:10.159Z,99.13
2023-02-22T09:30:39.023Z,107.63
2023-02-22T09:33:16.258Z,101.10
2023-02-22T09:35:50.087Z,112.28
2023-02-22T09:38:23.204Z,112.55
2023-02-22T09:41:35.184Z,104.97
2023-02-22T09:44:48.736Z,106.85
2023-02-22T09:47:32.741Z,111.90
2023-02-22T09:50:05.173Z,109.95
2023-02-22T09:52:40.033Z,112.00
2023-02-22T09:55:17.879Z,101.20
2023-02-22T09:57:46.678Z,101.68
2023-02-22T10:00:24.283Z,105.65
2023-02-22T10:03:29.040Z,101.32
2023-02-22T10:06:12.004Z,102.80
2023-02-22T10:08:40.841Z,109.57
2023-02-22T10:11:28.865Z,97.88
2023-02-22T10:14:43.782Z,100.75
2023-02-22T10:17:45.771Z,104.03
2023-02-22T10:20:51.913Z,103.95
2023-02-22T10:24:17.116Z,100.15
2023-02-22T10:26:47.070Z,96.25
2023-02-22T10:29:32.914Z,99.97
2023-02-22T10:32:05.155Z,105.03
2023-02-22T10:34:48.765Z,104.30
2023-02-22T10:37:26.834Z,97.95
2023-02-22T10:40:17.563Z,100.75
2023-02-22T10:42:47.655Z,93.68
2023-02-22T10:45:30.178Z,104.15
2023-02-22T10:48:09.013Z,99.63
2023-02-22T10:50:41.169Z,97.07
2023-02-22T10:53:10.315Z,106.80
2023-02-22T10:56:17.282Z,103.18
2023-02-22T10:59:07.694Z,93.93
2023-02-22T11:01:38.761Z,92.70
2023-02-22T11:04:17.666Z,104.32
2023-02-22T11:07:10.170Z,98.07
2023-02-22T11:10:03.524Z,106.85
2023-02-22T11:12:41.491Z,92.75
2023-02-22T11:15:19.680Z,86.30
2023-02-22T11:17:50.580Z,96.60
2023-02-22T11:20:34.707Z,91.53
2023-02-22T11:23:04.538Z,91.45
2023-02-22T11:25:42.624Z,90.95
2023-02-22T11:28:31.157Z,88.68
2023-02-22T11:31:15.967Z,87.43
2023-02-22T11:36:40.880Z,97.13
2023-02-22T11:39:34.674Z,84.68
2023-02-22T11:45:25.306Z,89.32
2023-02-22T11:47:56.846Z,87.68
2023-02-22T11:50:52.113Z,86.63
2023-02-22T11:53:38.065Z,87.85
2023-02-22T11:56:46.518Z,89.28
2023-02-22T11:59:36.920Z,88.85
2023-02-22T12:02:30.881Z,88.93
2023-02-22T12:05:18.693Z,95.57
2023-02-22T12:08:19.605Z,95.38
2023-02-22T12:11:19.237Z,94.72
2023-02-22T12:14:15.704Z,98.38
2023-02-22T12:17:14.912Z,94.82
2023-02-22T12:19:51.354Z,92.32
2023-02-22T12:22:36.930Z,98.35
2023-02-22T12:25:16.673Z,93.15
2023-02-22T12:28:24.556Z,89.75
2023-02-22T12:31:23.508Z,96.32
2023-02-22T12:34:29.369Z,87.35
2023-02-22T12:37:15.113Z,95.22
2023-02-22T12:39:56.638Z,92.60
2023-02-22T12:43:13.340Z,85.85
2023-02-22T12:46:11.082Z,91.43
2023-02-22T12:49:15.534Z,88.60
2023-02-22T12:52:21.620Z,87.25
2023-02-22T12:55:16.103Z,89.40
2023-02-22T12:57:54.774Z,88.55
2023-02-22T13:00:37.096Z,96.38
2023-02-22T13:03:40.590Z,91.43
2023-02-22T13:06:38.773Z,96.05
2023-02-22T13:09:28.481Z,91.93
2023-02-22T13:12:23.732Z,90.97
2023-02-22T13:15:09.899Z,89.47
2023-02-22T13:18:04.617Z,88.93
2023-02-22T13:20:45.591Z,92.47
2023-02-22T13:23:49.055Z,91.57
2023-02-22T13:26:33.098Z,95.50
2023-02-22T13:29:22.504Z,87.70
2023-02-22T13:32:18.277Z,96.63
2023-02-22T13:35:16.925Z,94.63
2023-02-22T13:38:21.544Z,101.75
2023-02-22T13:41:08.640Z,91.65
2023-02-22T13:43:53.801Z,94.03
2023-02-22T13:46:47.198Z,88.90
2023-02-22T13:50:00.133Z,86.28
2023-02-22T13:52:31.309Z,90.55
2023-02-22T13:55:11.353Z,90.97
2023-02-22T13:57:49.931Z,92.20
2023-02-22T14:00:25.028Z,92.97
2023-02-22T14:03:34.433Z,96.90
2023-02-22T14:06:05.749Z,89.10
2023-02-22T14:08:34.373Z,92.70
2023-02-22T14:11:12.952Z,92.03
2023-02-22T14:14:01.164Z,94.38
2023-02-22T14:16:31.396Z,91.43
2023-02-22T14:19:06.954Z,90.18
2023-02-22T14:21:36.453Z,95.38
2023-02-22T14:24:15.122Z,87.10
2023-02-22T14:27:03.769Z,88.13
2023-02-22T14:29:32.473Z,101.57
2023-02-22T14:32:11.095Z,88.28
2023-02-22T14:35:00.475Z,92.63
2023-02-22T14:37:34.156Z,83.85
2023-02-22T14:43:02.141Z,89.10
2023-02-22T14:45:34.910Z,93.80
2023-02-22T14:48:43.010Z,84.10
2023-02-22T14:51:26.444Z,90.35
2023-02-22T14:54:21.717Z,81.75
2023-02-22T14:57:15.051Z,84.63
2023-02-22T15:00:20.481Z,88.97
2023-02-22T15:02:52.714Z,85.28
2023-02-22T15:07:55.678Z,81.93
2023-02-22T15:10:30.396Z,88.65
2023-02-22T15:13:11.359Z,83.57
2023-02-22T15:15:48.236Z,87.07
2023-02-22T15:18:46.423Z,83.53
2023-02-22T15:21:24.838Z,82.15
2023-02-22T15:24:02.026Z,85.45
2023-02-22T15:26:52.017Z,85.30
2023-02-22T15:29:41.110Z,84.65
2023-02-22T15:32:34.753Z,79.97
2023-02-22T15:35:27.810Z,80.57
2023-02-22T15:38:02.638Z,86.32
2023-02-22T15:40:33.526Z,77.22
2023-02-22T15:43:05.113Z,80.13
2023-02-22T15:45:33.652Z,82.32
2023-02-22T15:48:03.512Z,83.15
2023-02-22T15:50:34.150Z,78.97
2023-02-22T15:53:06.965Z,80.93
2023-02-22T15:55:40.414Z,83.93
2023-02-22T15:58:31.645Z,81.78
2023-02-22T16:01:06.854Z,80.40
2023-02-22T16:03:45.765Z,81.10
2023-02-22T16:06:39.767Z,80.60
2023-02-22T16:09:26.359Z,76.32
2023-02-22T16:12:20.822Z,85.35
2023-02-22T16:14:52.519Z,78.00
2023-02-22T16:17:41.149Z,79.07
2023-02-22T16:20:12.168Z,85.72
2023-02-22T16:22:41.672Z,69.85
2023-02-22T16:25:19.592Z,79.47
2023-02-22T16:27:58.185Z,73.80
2023-02-22T16:30:36.798Z,79.97
2023-02-22T16:33:16.743Z,76.65
2023-02-22T16:35:52.408Z,83.20
2023-02-22T16:38:21.374Z,79.85
2023-02-22T16:40:54.118Z,70.55
2023-02-22T16:43:33.180Z,65.90
2023-02-22T16:46:02.952Z,71.15
2023-02-22T16:48:32.956Z,68.93
2023-02-22T16:51:15.281Z,72.32
2023-02-22T16:53:45.036Z,76.00
2023-02-22T16:56:16.742Z,68.20
2023-02-22T16:58:45.617Z,76.78
2023-02-22T17:01:14.650Z,68.93
2023-02-22T17:03:43.414Z,67.63
2023-02-22T17:06:12.786Z,68.35
2023-02-22T17:08:41.778Z,67.97
2023-02-22T17:11:12.622Z,67.30
2023-02-22T17:13:59.990Z,66.85
2023-02-22T17:16:29.131Z,63.58
2023-02-22T17:18:57.811Z,68.90
2023-02-22T17:21:27.069Z,68.20
2023-02-22T17:23:55.662Z,70.40
2023-02-22T17:26:26.675Z,68.10
2023-02-22T17:28:55.320Z,67.50
2023-02-22T17:31:26.737Z,68.45
2023-02-22T17:33:56.871Z,69.43
2023-02-22T17:36:25.710Z,72.93
2023-02-22T17:38:54.616Z,66.05
2023-02-22T17:41:23.677Z,68.13
2023-02-22T17:43:54.437Z,69.05
2023-02-22T17:46:25.396Z,69.65
2023-02-22T17:48:56.722Z,70.45
2023-02-22T17:51:26.336Z,73.30
2023-02-22T17:53:54.977Z,69.55
2023-02-22T17:56:23.985Z,70.20
2023-02-22T17:58:54.634Z,71.57
2023-02-22T18:01:32.104Z,65.43
2023-02-22T18:04:02.004Z,67.45
2023-02-22T18:06:32.928Z,71.82
2023-02-22T18:09:01.712Z,67.57
2023-02-22T18:11:32.810Z,70.53
2023-02-22T18:14:01.280Z,70.68
2023-02-22T18:16:30.218Z,69.78
2023-02-22T18:19:01.506Z,64.57
2023-02-22T18:21:30.465Z,69.00
2023-02-22T18:23:58.945Z,74.15
2023-02-22T18:26:28.210Z,65.53
2023-02-22T18:28:57.064Z,68.88
2023-02-22T18:31:25.933Z,69.47
2023-02-22T18:33:54.529Z,69.50
2023-02-22T18:36:24.972Z,71.82
2023-02-22T18:38:54.591Z,73.32
2023-02-22T18:41:27.376Z,70.03
2023-02-22T18:43:58.162Z,73.25
2023-02-22T18:46:27.958Z,71.65
2023-02-22T18:48:57.123Z,74.65
2023-02-22T18:51:26.561Z,75.47
2023-02-22T18:54:00.846Z,74.40
2023-02-22T18:56:30.343Z,77.65
2023-02-22T18:59:01.618Z,81.30
2023-02-22T19:01:31.602Z,76.72
2023-02-22T19:04:01.294Z,79.40
2023-02-22T19:06:30.223Z,79.88
2023-02-22T19:09:01.530Z,71.50
2023-02-22T19:11:30.499Z,81.57
2023-02-22T19:13:59.120Z,79.65
2023-02-22T19:16:28.344Z,70.32
2023-02-22T19:18:57.809Z,86.85
2023-02-22T19:21:29.123Z,82.20
2023-02-22T19:24:02.417Z,83.43
2023-02-22T19:26:32.213Z,78.40
2023-02-22T19:29:05.136Z,79.82
2023-02-22T19:31:34.339Z,82.13
2023-02-22T19:34:09.058Z,79.63
2023-02-22T19:36:39.894Z,85.30
2023-02-22T19:39:08.972Z,86.93
2023-02-22T19:41:38.475Z,82.85
2023-02-22T19:44:07.259Z,81.80
2023-02-22T19:46:36.794Z,82.45
2023-02-22T19:49:05.842Z,82.97
2023-02-22T19:51:34.774Z,90.20
2023-02-22T19:54:06.759Z,82.57
2023-02-22T19:56:35.775Z,84.50
2023-02-22T19:59:09.675Z,82.78
2023-02-22T20:01:38.628Z,85.72
2023-02-22T20:04:09.632Z,81.15
2023-02-22T20:06:41.873Z,85.70
2023-02-22T20:09:18.203Z,83.88
2023-02-22T20:11:47.962Z,77.72
2023-02-22T20:14:23.628Z,82.97
2023-02-22T20:16:53.742Z,84.13
2023-02-22T20:19:26.924Z,80.07
2023-02-22T20:21:56.484Z,75.15
2023-02-22T20:24:25.700Z,85.10
2023-02-22T20:26:58.390Z,83.55
2023-02-22T20:29:31.570Z,86.70
2023-02-22T20:32:02.208Z,79.22
2023-02-22T20:34:33.315Z,84.28
2023-02-22T20:37:03.865Z,81.85
2023-02-22T20:39:36.260Z,85.32
2023-02-22T20:42:08.104Z,84.18
2023-02-22T20:44:38.374Z,82.07
2023-02-22T20:47:08.685Z,84.05
2023-02-22T20:49:38.706Z,83.85
2023-02-22T20:52:09.274Z,83.47
2023-02-22T20:54:39.389Z,76.43
2023-02-22T20:57:09.356Z,87.05
2023-02-22T20:59:40.935Z,82.20
2023-02-22T21:02:11.809Z,86.90
2023-02-22T21:04:41.736Z,85.00
2023-02-22T21:07:12.325Z,82.75
2023-02-22T21:09:42.400Z,88.22
2023-02-22T21:12:14.322Z,84.65
2023-02-22T21:14:44.624Z,87.72
2023-02-22T21:17:13.572Z,79.57
2023-02-22T21:19:42.346Z,89.57
2023-02-22T21:22:11.118Z,85.13
2023-02-22T21:24:39.619Z,95.70
2023-02-22T21:27:08.916Z,87.15
2023-02-22T21:29:37.617Z,89.22
2023-02-22T21:32:08.857Z,92.78
2023-02-22T21:34:37.787Z,88.10
2023-02-22T21:37:08.460Z,91.28
2023-02-22T21:39:36.896Z,92.10
2023-02-22T21:42:07.414Z,90.68
2023-02-22T21:44:35.909Z,85.72
2023-02-22T21:47:04.874Z,93.88
2023-02-22T21:49:33.448Z,85.72
2023-02-22T21:52:02.596Z,88.10
2023-02-22T21:54:31.122Z,88.05
2023-02-22T21:57:00.168Z,92.60
2023-02-22T21:59:28.689Z,89.47
2023-02-22T22:01:57.445Z,94.10
2023-02-22T22:04:31.154Z,89.68
2023-02-22T22:07:01.475Z,85.97
2023-02-22T22:09:33.475Z,92.50
2023-02-22T22:12:05.549Z,84.00
2023-02-22T22:14:34.732Z,94.10
2023-02-22T22:17:05.865Z,86.70
2023-02-22T22:19:42.101Z,86.15
2023-02-22T22:22:10.867Z,92.82
2023-02-22T22:24:41.854Z,96.70
2023-02-22T22:27:13.027Z,88.07
2023-02-22T22:29:41.542Z,90.18
2023-02-22T22:32:10.804Z,88.25
2023-02-22T22:34:39.469Z,91.35
2023-02-22T22:37:09.222Z,90.40
2023-02-22T22:39:38.972Z,87.22
2023-02-22T22:42:09.479Z,94.97
2023-02-22T22:44:42.521Z,93.43
2023-02-22T22:47:14.555Z,93.82
2023-02-22T22:49:43.074Z,88.90
2023-02-22T22:52:16.631Z,87.43
2023-02-22T22:54:45.043Z,80.65
2023-02-22T22:57:14.963Z,82.50
2023-02-22T22:59:43.415Z,84.85
2023-02-22T23:02:12.198Z,85.30
2023-02-22T23:04:40.669Z,81.28
2023-02-22T23:07:09.658Z,90.60
2023-02-22T23:09:39.939Z,80.20
2023-02-22T23:12:09.238Z,88.07
2023-02-22T23:14:44.219Z,77.70
2023-02-22T23:17:31.629Z,78.70
2023-02-22T23:20:00.195Z,85.30
2023-02-22T23:22:28.933Z,82.07
2023-02-22T23:25:00.054Z,91.05
2023-02-22T23:27:28.921Z,85.10
2023-02-22T23:29:57.384Z,82.82
2023-02-22T23:32:29.504Z,77.53
2023-02-22T23:34:57.844Z,80.57
2023-02-22T23:37:26.542Z,87.20
2023-02-22T23:39:54.865Z,82.30
2023-02-22T23:42:23.531Z,85.65
2023-02-22T23:44:53.555Z,85.15
2023-02-22T23:47:22.318Z,82.82
2023-02-22T23:49:50.757Z,86.72
2023-02-22T23:52:24.626Z,84.47
2023-02-22T23:54:54.252Z,85.22
2023-02-22T23:57:24.689Z,86.70
2023-02-22T23:59:53.253Z,82.50
